createdAt,value
2018-02-13T00:01:54.702Z,-0.50
2018-02-13T00:04:23.025Z,-0.50
2018-02-13T00:06:58.421Z,-0.40
2018-02-13T00:09:26.709Z,-0.50
2018-02-13T00:11:55.008Z,-0.40
2018-02-13T00:14:23.726Z,-0.40
2018-02-13T00:16:55.058Z,-0.30
2018-02-13T00:19:23.385Z,-0.30
2018-02-13T00:21:52.473Z,-0.20
2018-02-13T00:24:20.767Z,-0.30
2018-02-13T00:26:49.230Z,-0.20
2018-02-13T00:29:17.531Z,-0.20
2018-02-13T00:31:45.817Z,-0.20
2018-02-13T00:34:14.133Z,-0.20
2018-02-13T00:36:42.434Z,-0.20
2018-02-13T00:39:10.709Z,-0.10
2018-02-13T00:41:39.048Z,-0.10
2018-02-13T00:44:07.335Z,-0.10
2018-02-13T00:46:36.720Z,-0.10
2018-02-13T00:49:05.778Z,-0.10
2018-02-13T00:51:34.065Z,-0.20
2018-02-13T00:54:02.675Z,-0.20
2018-02-13T00:56:30.969Z,-0.10
2018-02-13T00:58:59.258Z,-0.10
2018-02-13T01:01:27.575Z,-0.10
2018-02-13T01:03:56.625Z,-0.10
2018-02-13T01:06:25.197Z,-0.20
2018-02-13T01:08:53.491Z,-0.20
2018-02-13T01:11:21.775Z,-0.20
2018-02-13T01:13:50.110Z,-0.20
2018-02-13T01:16:18.382Z,-0.20
2018-02-13T01:18:46.702Z,-0.30
2018-02-13T01:21:15.033Z,-0.30
2018-02-13T01:23:43.330Z,-0.40
2018-02-13T01:26:11.642Z,-0.40
2018-02-13T01:28:39.926Z,-0.40
2018-02-13T01:31:08.257Z,-0.40
2018-02-13T01:33:37.562Z,-0.30
2018-02-13T01:36:05.889Z,-0.30
2018-02-13T01:38:34.178Z,-0.30
2018-02-13T01:41:02.642Z,-0.30
2018-02-13T01:43:31.686Z,-0.50
2018-02-13T01:45:59.976Z,-0.50
2018-02-13T01:48:29.272Z,-0.50
2018-02-13T01:50:57.566Z,-0.50
2018-02-13T01:53:25.845Z,-0.60
2018-02-13T01:55:54.262Z,-0.60
2018-02-13T01:58:22.552Z,-0.70
2018-02-13T02:00:50.876Z,-0.70
2018-02-13T02:03:19.190Z,-0.70
2018-02-13T02:05:47.522Z,-0.70
2018-02-13T02:08:15.822Z,-0.80
2018-02-13T02:10:44.418Z,-0.90
2018-02-13T02:13:12.696Z,-0.90
2018-02-13T02:15:48.374Z,-0.90
2018-02-13T02:18:16.665Z,-0.90
2018-02-13T02:20:44.946Z,-1.00
2018-02-13T02:23:13.542Z,-1.00
2018-02-13T02:25:41.830Z,-1.00
2018-02-13T02:28:10.155Z,-1.00
2018-02-13T02:30:39.442Z,-1.10
2018-02-13T02:33:07.743Z,-1.20
2018-02-13T02:35:36.028Z,-1.10
2018-02-13T02:38:04.364Z,-1.10
2018-02-13T02:40:32.657Z,-1.20
2018-02-13T02:43:07.424Z,-1.10
2018-02-13T02:45:35.711Z,-1.20
2018-02-13T02:48:03.987Z,-1.10
2018-02-13T02:50:32.322Z,-1.20
2018-02-13T02:53:01.595Z,-1.20
2018-02-13T02:55:29.870Z,-1.20
2018-02-13T02:57:58.190Z,-1.20
2018-02-13T03:00:26.496Z,-1.20
2018-02-13T03:02:54.845Z,-1.20
2018-02-13T03:05:23.157Z,-1.20
2018-02-13T03:07:51.435Z,-1.20
2018-02-13T03:10:19.893Z,-1.20
2018-02-13T03:12:48.198Z,-1.30
2018-02-13T03:15:16.470Z,-1.30
2018-02-13T03:17:44.939Z,-1.30
2018-02-13T03:20:13.986Z,-1.30
2018-02-13T03:22:42.257Z,-1.30
2018-02-13T03:25:10.578Z,-1.30
2018-02-13T03:27:38.878Z,-1.30
2018-02-13T03:30:07.198Z,-1.20
2018-02-13T03:32:36.270Z,-1.40
2018-02-13T03:35:04.572Z,-1.40
2018-02-13T03:37:32.915Z,-1.30
2018-02-13T03:40:01.211Z,-1.40
2018-02-13T03:42:29.530Z,-1.40
2018-02-13T03:44:58.415Z,-1.50
2018-02-13T03:47:26.728Z,-1.50
2018-02-13T03:49:55.410Z,-1.50
2018-02-13T03:52:23.693Z,-1.50
2018-02-13T03:54:51.990Z,-1.50
2018-02-13T03:57:20.324Z,-1.50
2018-02-13T03:59:48.596Z,-1.50
2018-02-13T04:02:17.009Z,-1.50
2018-02-13T04:04:47.293Z,-1.60
2018-02-13T04:07:15.594Z,-1.60
2018-02-13T04:09:43.925Z,-1.60
2018-02-13T04:12:12.226Z,-1.60
2018-02-13T04:14:40.540Z,-1.70
2018-02-13T04:17:08.861Z,-1.70
2018-02-13T04:19:37.170Z,-1.70
2018-02-13T04:22:06.245Z,-1.70
2018-02-13T04:24:34.576Z,-1.80
2018-02-13T04:27:03.657Z,-1.70
2018-02-13T04:29:31.959Z,-1.80
2018-02-13T04:32:00.311Z,-1.70
2018-02-13T04:34:28.581Z,-1.70
2018-02-13T04:36:57.177Z,-1.70
2018-02-13T04:39:26.382Z,-1.80
2018-02-13T04:41:54.673Z,-1.80
2018-02-13T04:44:23.046Z,-1.80
2018-02-13T04:46:51.397Z,-1.90
2018-02-13T04:49:19.678Z,-1.90
2018-02-13T04:51:47.959Z,-1.90
2018-02-13T04:54:16.285Z,-1.90
2018-02-13T04:56:45.334Z,-2.00
2018-02-13T04:59:13.653Z,-2.00
2018-02-13T05:01:41.972Z,-2.00
2018-02-13T05:04:10.284Z,-2.00
2018-02-13T05:06:38.585Z,-2.00
2018-02-13T05:09:06.900Z,-1.90
2018-02-13T05:11:35.177Z,-2.00
2018-02-13T05:14:03.483Z,-2.00
2018-02-13T05:16:31.780Z,-1.90
2018-02-13T05:19:00.433Z,-2.00
2018-02-13T05:21:28.714Z,-2.00
2018-02-13T05:23:57.046Z,-2.00
2018-02-13T05:26:25.367Z,-1.80
2018-02-13T05:28:55.327Z,-1.80
2018-02-13T05:31:23.651Z,-1.90
2018-02-13T05:33:51.969Z,-1.90
2018-02-13T05:36:21.029Z,-2.00
2018-02-13T05:38:49.345Z,-2.00
2018-02-13T05:41:17.678Z,-2.00
2018-02-13T05:43:46.002Z,-2.00
2018-02-13T05:46:14.302Z,-1.90
2018-02-13T05:48:42.634Z,-1.90
2018-02-13T05:51:10.922Z,-1.90
2018-02-13T05:53:39.249Z,-1.90
2018-02-13T05:56:07.538Z,-1.90
2018-02-13T05:58:36.282Z,-1.90
2018-02-13T06:01:05.361Z,-1.90
2018-02-13T06:03:33.646Z,-1.90
2018-02-13T06:06:01.974Z,-1.80
2018-02-13T06:08:31.054Z,-1.80
2018-02-13T06:10:59.385Z,-1.90
2018-02-13T06:13:27.742Z,-1.80
2018-02-13T06:15:56.099Z,-1.80
2018-02-13T06:18:24.579Z,-1.70
2018-02-13T06:20:52.990Z,-1.60
2018-02-13T06:23:21.295Z,-1.60
2018-02-13T06:25:50.570Z,-1.60
2018-02-13T06:28:19.042Z,-1.70
2018-02-13T06:30:47.369Z,-1.80
2018-02-13T06:33:16.554Z,-1.80
2018-02-13T06:35:44.909Z,-1.90
2018-02-13T06:38:13.963Z,-2.00
2018-02-13T06:40:42.278Z,-2.00
2018-02-13T06:43:11.371Z,-2.00
2018-02-13T06:45:39.743Z,-2.10
2018-02-13T06:48:08.030Z,-2.00
2018-02-13T06:50:36.387Z,-2.00
2018-02-13T06:53:05.478Z,-2.00
2018-02-13T06:55:34.539Z,-2.00
2018-02-13T06:58:03.026Z,-2.10
2018-02-13T07:00:35.625Z,-2.00
2018-02-13T07:03:03.991Z,-2.00
2018-02-13T07:05:32.301Z,-2.00
2018-02-13T07:08:00.613Z,-1.90
2018-02-13T07:10:28.950Z,-1.90
2018-02-13T07:12:57.303Z,-1.80
2018-02-13T07:15:25.592Z,-1.70
2018-02-13T07:17:53.929Z,-1.70
2018-02-13T07:20:22.206Z,-1.60
2018-02-13T07:22:51.787Z,-1.60
2018-02-13T07:25:21.175Z,-1.50
2018-02-13T07:27:49.488Z,-1.30
2018-02-13T07:30:18.210Z,-1.10
2018-02-13T07:32:46.581Z,-0.80
2018-02-13T07:35:14.927Z,-0.40
2018-02-13T07:37:43.208Z,-0.10
2018-02-13T07:40:11.528Z,0.20
2018-02-13T07:42:39.885Z,0.50
2018-02-13T07:45:08.249Z,0.70
2018-02-13T07:47:36.538Z,0.90
2018-02-13T07:50:05.593Z,1.50
2018-02-13T07:52:35.146Z,1.50
2018-02-13T07:55:03.427Z,1.70
2018-02-13T07:57:31.729Z,1.90
2018-02-13T08:00:00.095Z,1.80
2018-02-13T08:02:28.405Z,1.50
2018-02-13T08:04:56.712Z,1.30
2018-02-13T08:07:25.825Z,1.50
2018-02-13T08:09:55.731Z,1.70
2018-02-13T08:12:24.859Z,2.00
2018-02-13T08:14:53.180Z,2.00
2018-02-13T08:17:22.324Z,2.20
2018-02-13T08:19:50.693Z,2.10
2018-02-13T08:22:22.279Z,2.00
2018-02-13T08:24:50.607Z,1.80
2018-02-13T08:27:19.806Z,1.60
2018-02-13T08:29:48.849Z,1.40
2018-02-13T08:32:17.131Z,1.40
2018-02-13T08:34:45.436Z,1.70
2018-02-13T08:37:13.728Z,2.10
2018-02-13T08:39:42.049Z,2.60
2018-02-13T08:42:11.154Z,3.70
2018-02-13T08:44:39.495Z,3.60
2018-02-13T08:47:08.538Z,3.40
2018-02-13T08:49:37.016Z,3.40
2018-02-13T08:52:05.289Z,3.60
2018-02-13T08:54:33.569Z,3.70
2018-02-13T08:57:01.965Z,3.50
2018-02-13T08:59:30.242Z,3.60
2018-02-13T09:01:59.749Z,2.60
2018-02-13T09:04:28.817Z,2.60
2018-02-13T09:06:57.102Z,2.60
2018-02-13T09:09:25.410Z,2.80
2018-02-13T09:11:53.716Z,3.20
2018-02-13T09:14:22.019Z,3.60
2018-02-13T09:16:50.325Z,4.10
2018-02-13T09:19:18.593Z,5.00
2018-02-13T09:21:49.646Z,5.60
2018-02-13T09:24:17.929Z,5.60
2018-02-13T09:26:46.222Z,6.10
2018-02-13T09:29:14.585Z,6.10
2018-02-13T09:31:42.894Z,6.30
2018-02-13T09:34:11.197Z,6.40
2018-02-13T09:36:39.487Z,6.60
2018-02-13T09:39:10.701Z,6.30
2018-02-13T09:41:38.996Z,6.30
2018-02-13T09:44:08.079Z,6.90
2018-02-13T09:46:36.415Z,6.80
2018-02-13T09:49:04.701Z,7.10
2018-02-13T09:51:33.046Z,6.90
2018-02-13T09:54:01.326Z,6.70
2018-02-13T09:56:29.617Z,6.60
2018-02-13T09:58:59.009Z,7.10
2018-02-13T10:01:28.054Z,7.30
2018-02-13T10:03:56.325Z,7.20
2018-02-13T10:06:24.650Z,7.70
2018-02-13T10:08:54.919Z,8.00
2018-02-13T10:11:24.015Z,7.60
2018-02-13T10:13:52.351Z,7.60
2018-02-13T10:16:20.659Z,7.40
2018-02-13T10:18:48.950Z,7.90
2018-02-13T10:21:17.261Z,8.00
2018-02-13T10:23:45.601Z,8.20
2018-02-13T10:26:18.666Z,8.30
2018-02-13T10:28:48.017Z,8.00
2018-02-13T10:31:16.337Z,7.90
2018-02-13T10:33:44.606Z,8.20
2018-02-13T10:36:23.302Z,8.40
2018-02-13T10:38:52.337Z,9.00
2018-02-13T10:41:20.646Z,8.90
2018-02-13T10:43:49.112Z,9.40
2018-02-13T10:46:21.854Z,9.50
2018-02-13T10:48:50.318Z,9.80
2018-02-13T10:51:19.600Z,10.10
2018-02-13T10:53:48.703Z,11.00
2018-02-13T10:56:16.997Z,11.00
2018-02-13T10:59:10.704Z,11.80
2018-02-13T11:01:48.102Z,11.80
2018-02-13T11:04:16.390Z,11.90
2018-02-13T11:06:45.632Z,11.20
2018-02-13T11:09:21.879Z,11.20
2018-02-13T11:11:52.059Z,10.30
2018-02-13T11:14:21.371Z,10.20
2018-02-13T11:16:49.709Z,9.70
2018-02-13T11:19:18.764Z,9.20
2018-02-13T11:21:47.132Z,9.20
2018-02-13T11:24:15.476Z,9.50
2018-02-13T11:26:44.226Z,9.00
2018-02-13T11:29:12.552Z,8.90
2018-02-13T11:31:40.849Z,8.80
2018-02-13T11:34:09.197Z,8.20
2018-02-13T11:36:37.479Z,7.40
2018-02-13T11:39:21.353Z,7.90
2018-02-13T11:42:07.300Z,8.20
2018-02-13T11:44:55.426Z,8.50
2018-02-13T11:47:23.713Z,8.60
2018-02-13T11:49:51.985Z,9.00
2018-02-13T11:52:20.285Z,8.80
2018-02-13T11:54:48.555Z,8.40
2018-02-13T11:57:16.865Z,7.80
2018-02-13T11:59:45.184Z,7.80
2018-02-13T12:02:21.721Z,7.80
2018-02-13T12:04:51.081Z,7.70
2018-02-13T12:07:19.666Z,7.40
2018-02-13T12:09:48.103Z,7.30
2018-02-13T12:12:16.470Z,6.80
2018-02-13T12:14:44.745Z,6.00
2018-02-13T12:17:13.977Z,5.90
2018-02-13T12:19:42.547Z,6.10
2018-02-13T12:22:11.742Z,6.00
2018-02-13T12:24:40.052Z,5.80
2018-02-13T12:27:08.379Z,5.90
2018-02-13T12:32:24.003Z,5.50
2018-02-13T12:34:52.681Z,5.50
2018-02-13T12:37:21.964Z,5.50
2018-02-13T12:39:51.242Z,5.50
2018-02-13T12:42:19.560Z,5.60
2018-02-13T12:45:18.421Z,5.50
2018-02-13T12:47:47.486Z,5.60
2018-02-13T12:50:15.839Z,5.20
2018-02-13T12:52:44.122Z,5.20
2018-02-13T12:55:12.733Z,5.30
2018-02-13T12:57:55.856Z,5.10
2018-02-13T13:00:29.333Z,5.00
2018-02-13T13:02:57.666Z,4.80
2018-02-13T13:05:27.043Z,4.90
2018-02-13T13:07:56.110Z,4.90
2018-02-13T13:10:31.711Z,4.90
2018-02-13T13:13:21.254Z,4.90
2018-02-13T13:19:08.826Z,5.60
2018-02-13T13:21:37.102Z,6.30
2018-02-13T13:26:48.060Z,7.40
2018-02-13T13:29:16.426Z,7.40
2018-02-13T13:31:44.751Z,7.50
2018-02-13T13:34:14.039Z,7.00
2018-02-13T13:36:42.361Z,7.00
2018-02-13T13:39:10.694Z,7.50
2018-02-13T13:41:39.035Z,7.60
2018-02-13T13:44:07.489Z,7.90
2018-02-13T13:46:35.794Z,7.70
2018-02-13T13:49:04.095Z,7.90
2018-02-13T13:51:32.408Z,7.40
2018-02-13T13:54:03.637Z,7.10
2018-02-13T13:56:32.001Z,6.60
2018-02-13T13:59:00.292Z,6.40
2018-02-13T14:01:28.605Z,6.20
2018-02-13T14:03:57.000Z,6.20
2018-02-13T14:06:25.318Z,6.20
2018-02-13T14:08:55.716Z,6.20
2018-02-13T14:11:26.050Z,6.20
2018-02-13T14:13:54.573Z,5.90
2018-02-13T14:16:22.891Z,5.80
2018-02-13T14:18:51.253Z,5.90
2018-02-13T14:21:19.817Z,5.80
2018-02-13T14:23:48.170Z,6.10
2018-02-13T14:26:16.485Z,5.90
2018-02-13T14:28:44.832Z,5.80
2018-02-13T14:31:13.295Z,5.60
2018-02-13T14:33:41.732Z,5.60
2018-02-13T14:36:14.990Z,5.80
2018-02-13T14:38:43.335Z,6.00
2018-02-13T14:41:21.962Z,6.00
2018-02-13T14:43:50.327Z,5.80
2018-02-13T14:46:37.655Z,5.80
2018-02-13T14:49:06.260Z,5.80
2018-02-13T14:51:34.665Z,5.80
2018-02-13T14:54:02.983Z,5.80
2018-02-13T14:59:31.597Z,5.60
2018-02-13T15:01:59.914Z,5.50
2018-02-13T15:04:28.301Z,5.50
2018-02-13T15:06:56.605Z,5.50
2018-02-13T15:09:24.890Z,5.30
2018-02-13T15:11:53.221Z,5.20
2018-02-13T15:14:22.938Z,5.20
2018-02-13T15:20:04.038Z,5.20
2018-02-13T15:22:32.494Z,5.00
2018-02-13T15:25:02.780Z,4.90
2018-02-13T15:27:31.149Z,4.80
2018-02-13T15:29:59.627Z,4.80
2018-02-13T15:32:28.032Z,4.70
2018-02-13T15:34:56.398Z,4.60
2018-02-13T15:37:24.805Z,4.50
2018-02-13T15:39:53.554Z,4.40
2018-02-13T15:42:21.990Z,4.30
2018-02-13T15:44:50.338Z,4.20
2018-02-13T15:47:20.846Z,4.20
2018-02-13T15:49:49.397Z,4.10
2018-02-13T15:52:18.449Z,4.00
2018-02-13T15:54:46.779Z,4.00
2018-02-13T15:57:16.452Z,4.10
2018-02-13T15:59:44.780Z,4.00
2018-02-13T16:02:13.139Z,4.00
2018-02-13T16:04:41.494Z,4.00
2018-02-13T16:07:09.961Z,4.00
2018-02-13T16:09:38.297Z,4.00
2018-02-13T16:12:06.592Z,3.90
2018-02-13T16:14:34.950Z,3.90
2018-02-13T16:17:03.276Z,3.80
2018-02-13T16:19:31.579Z,3.80
2018-02-13T16:21:59.990Z,3.70
2018-02-13T16:24:28.633Z,3.60
2018-02-13T16:26:57.036Z,3.60
2018-02-13T16:29:27.476Z,3.60
2018-02-13T16:31:55.767Z,3.60
2018-02-13T16:34:24.900Z,3.60
2018-02-13T16:36:53.239Z,3.50
2018-02-13T16:39:22.608Z,3.50
2018-02-13T16:41:50.947Z,3.40
2018-02-13T16:44:19.292Z,3.40
2018-02-13T16:46:51.337Z,3.30
2018-02-13T16:49:19.885Z,3.30
2018-02-13T16:51:49.214Z,3.20
2018-02-13T16:54:17.518Z,3.10
2018-02-13T16:56:45.873Z,3.00
2018-02-13T16:59:17.586Z,3.00
2018-02-13T17:01:46.452Z,3.00
2018-02-13T17:04:40.353Z,3.10
2018-02-13T17:07:28.257Z,3.10
2018-02-13T17:13:21.806Z,3.00
2018-02-13T17:18:29.486Z,2.90
2018-02-13T17:20:57.832Z,2.80
2018-02-13T17:23:26.170Z,2.70
2018-02-13T17:25:56.366Z,2.70
2018-02-13T17:28:33.907Z,2.60
2018-02-13T17:31:02.225Z,2.70
2018-02-13T17:33:30.632Z,2.70
2018-02-13T17:36:01.627Z,2.70
2018-02-13T17:38:31.589Z,2.60
2018-02-13T17:41:00.050Z,2.60
2018-02-13T17:43:28.387Z,2.50
2018-02-13T17:45:56.805Z,2.50
2018-02-13T17:48:25.130Z,2.50
2018-02-13T17:50:56.034Z,2.60
2018-02-13T17:53:59.634Z,2.50
2018-02-13T17:56:28.019Z,2.40
2018-02-13T17:58:56.357Z,2.40
2018-02-13T18:01:24.706Z,2.40
2018-02-13T18:03:53.032Z,2.30
2018-02-13T18:06:21.379Z,2.20
2018-02-13T18:08:54.510Z,2.20
2018-02-13T18:11:22.882Z,2.20
2018-02-13T18:13:51.309Z,2.20
2018-02-13T18:16:38.370Z,2.10
2018-02-13T18:19:07.010Z,2.10
2018-02-13T18:21:35.311Z,2.10
2018-02-13T18:24:03.583Z,2.00
2018-02-13T18:26:32.357Z,2.00
2018-02-13T18:29:00.660Z,2.10
2018-02-13T18:31:28.957Z,2.10
2018-02-13T18:33:57.284Z,2.00
2018-02-13T18:36:25.619Z,1.90
2018-02-13T18:38:53.915Z,1.90
2018-02-13T18:41:22.247Z,1.90
2018-02-13T18:43:51.318Z,1.80
2018-02-13T18:46:19.719Z,1.80
2018-02-13T18:48:48.284Z,1.70
2018-02-13T18:51:16.700Z,1.70
2018-02-13T18:53:45.213Z,1.70
2018-02-13T18:56:13.559Z,1.70
2018-02-13T18:58:42.836Z,1.60
2018-02-13T19:01:11.343Z,1.60
2018-02-13T19:03:39.659Z,1.50
2018-02-13T19:06:07.970Z,1.30
2018-02-13T19:08:36.287Z,1.30
2018-02-13T19:11:04.591Z,1.20
2018-02-13T19:13:33.730Z,1.20
2018-02-13T19:16:02.129Z,1.20
2018-02-13T19:18:30.512Z,1.30
2018-02-13T19:20:58.864Z,1.30
2018-02-13T19:23:28.574Z,1.30
2018-02-13T19:25:57.946Z,1.30
2018-02-13T19:28:26.291Z,1.20
2018-02-13T19:30:55.626Z,1.20
2018-02-13T19:33:23.951Z,1.10
2018-02-13T19:35:52.346Z,1.00
2018-02-13T19:38:20.669Z,1.10
2018-02-13T19:40:49.003Z,1.10
2018-02-13T19:43:17.375Z,1.10
2018-02-13T19:45:45.729Z,1.00
2018-02-13T19:48:14.578Z,0.90
2018-02-13T19:50:42.943Z,0.80
2018-02-13T19:53:12.043Z,0.60
2018-02-13T19:55:40.416Z,0.60
2018-02-13T19:58:08.718Z,0.50
2018-02-13T20:00:37.011Z,0.60
2018-02-13T20:03:05.466Z,0.60
2018-02-13T20:05:34.011Z,0.50
2018-02-13T20:08:02.340Z,0.60
2018-02-13T20:10:30.715Z,0.60
2018-02-13T20:12:59.093Z,0.70
2018-02-13T20:15:28.215Z,0.70
2018-02-13T20:17:56.551Z,0.70
2018-02-13T20:20:24.967Z,0.70
2018-02-13T20:22:54.284Z,0.70
2018-02-13T20:25:22.601Z,0.70
2018-02-13T20:27:50.937Z,0.70
2018-02-13T20:30:19.264Z,0.70
2018-02-13T20:32:47.572Z,0.80
2018-02-13T20:35:15.909Z,0.90
2018-02-13T20:37:46.373Z,0.80
2018-02-13T20:40:14.725Z,0.80
2018-02-13T20:42:43.092Z,0.80
2018-02-13T20:45:11.931Z,0.80
2018-02-13T20:47:40.287Z,0.70
2018-02-13T20:50:09.736Z,0.70
2018-02-13T20:52:38.109Z,0.70
2018-02-13T20:55:06.603Z,0.70
2018-02-13T20:57:45.065Z,0.60
2018-02-13T21:00:13.534Z,0.50
2018-02-13T21:02:46.374Z,0.30
2018-02-13T21:05:21.347Z,0.30
2018-02-13T21:07:52.316Z,0.20
2018-02-13T21:10:21.805Z,0.20
2018-02-13T21:12:50.364Z,0.30
2018-02-13T21:15:18.767Z,0.30
2018-02-13T21:17:47.111Z,0.20
2018-02-13T21:20:15.725Z,0.10
2018-02-13T21:22:44.087Z,0.00
2018-02-13T21:25:12.380Z,0.00
2018-02-13T21:27:41.069Z,-0.10
2018-02-13T21:30:11.512Z,-0.10
2018-02-13T21:32:40.396Z,-0.20
2018-02-13T21:35:08.838Z,-0.30
2018-02-13T21:37:37.168Z,-0.40
2018-02-13T21:40:05.626Z,-0.40
2018-02-13T21:42:50.548Z,-0.40
2018-02-13T21:45:20.274Z,-0.50
2018-02-13T21:47:52.607Z,-0.60
2018-02-13T21:50:22.436Z,-0.70
2018-02-13T21:52:52.372Z,-0.80
2018-02-13T21:55:20.981Z,-0.90
2018-02-13T21:57:49.408Z,-1.00
2018-02-13T22:00:20.084Z,-1.00
2018-02-13T22:02:53.942Z,-1.10
2018-02-13T22:05:22.487Z,-1.10
2018-02-13T22:10:39.597Z,-1.20
2018-02-13T22:13:20.986Z,-1.20
2018-02-13T22:15:50.333Z,-1.20
2018-02-13T22:18:19.141Z,-1.30
2018-02-13T22:23:57.100Z,-1.30
2018-02-13T22:26:25.407Z,-1.30
2018-02-13T22:28:54.102Z,-1.30
2018-02-13T22:31:23.026Z,-1.40
2018-02-13T22:33:51.344Z,-1.40
2018-02-13T22:36:19.724Z,-1.40
2018-02-13T22:38:48.166Z,-1.40
2018-02-13T22:41:16.650Z,-1.40
2018-02-13T22:43:45.009Z,-1.50
2018-02-13T22:46:13.446Z,-1.60
2018-02-13T22:48:41.889Z,-1.50
2018-02-13T22:51:10.221Z,-1.60
2018-02-13T22:53:40.524Z,-1.60
2018-02-13T22:56:08.990Z,-1.70
2018-02-13T22:58:37.387Z,-1.70
2018-02-13T23:01:05.707Z,-1.70
2018-02-13T23:03:35.033Z,-1.80
2018-02-13T23:06:03.439Z,-1.80
2018-02-13T23:08:31.787Z,-1.70
2018-02-13T23:11:00.181Z,-1.80
2018-02-13T23:13:28.527Z,-1.80
2018-02-13T23:16:02.622Z,-1.80
2018-02-13T23:18:30.975Z,-1.80
2018-02-13T23:20:59.704Z,-1.80
2018-02-13T23:23:28.101Z,-1.80
2018-02-13T23:25:56.486Z,-1.90
2018-02-13T23:28:26.238Z,-1.90
2018-02-13T23:30:55.808Z,-1.90
2018-02-13T23:33:24.431Z,-1.90
2018-02-13T23:35:52.926Z,-2.00
2018-02-13T23:38:21.268Z,-2.00
2018-02-13T23:40:49.650Z,-2.00
2018-02-13T23:43:22.738Z,-2.00
2018-02-13T23:45:51.118Z,-2.00
2018-02-13T23:48:19.418Z,-2.10
2018-02-13T23:50:47.797Z,-2.10
2018-02-13T23:53:16.180Z,-2.10
2018-02-13T23:55:44.563Z,-2.10
2018-02-13T23:58:14.451Z,-2.10
